Terminal Aerodrome Forecast
Issued by NWS Milwaukee/Sullivan, WI

Current Version | Previous Version | Text Only | Print | Product List | Glossary On
Versions: 1 2 3 4 5 6 7 8 9 10 11 12 13 14 15 16 17 18 19 20 21 22 23 24 25 26 27 28
000
FTUS43 KMKX 182053 AAA
TAFMSN
TAF AMD
KMSN 182053Z 1821/1918 02006KT P6SM SCT250
     FM190000 06007KT P6SM FEW090
     FM190400 11008KT P6SM FEW090
     FM191400 12013G19KT P6SM FEW090=

USA.gov is the U.S. government's official web portal to all federal, state and local government web resources and services.